sensor_id;sensor_type;location;lat;lon;timestamp;pressure;altitude;pressure_sealevel;temperature;humidity
34979;BME280;21185;50.978;13.720;2024-03-25T00:03:39;96734.41;;;5.73;78.04
34979;BME280;21185;50.978;13.720;2024-03-25T00:08:40;96738.41;;;5.75;77.75
34979;BME280;21185;50.978;13.720;2024-03-25T00:13:41;96732.28;;;5.76;78.17
34979;BME280;21185;50.978;13.720;2024-03-25T00:18:42;96738.06;;;5.78;78.41
34979;BME280;21185;50.978;13.720;2024-03-25T00:23:43;96739.09;;;5.69;79.30
34979;BME280;21185;50.978;13.720;2024-03-25T00:28:44;96732.34;;;5.68;79.41
34979;BME280;21185;50.978;13.720;2024-03-25T00:33:46;96741.03;;;5.67;79.35
34979;BME280;21185;50.978;13.720;2024-03-25T00:38:50;96748.13;;;5.65;79.96
34979;BME280;21185;50.978;13.720;2024-03-25T00:43:50;96750.53;;;5.67;80.01
34979;BME280;21185;50.978;13.720;2024-03-25T00:48:52;96744.56;;;5.66;80.02
34979;BME280;21185;50.978;13.720;2024-03-25T00:53:55;96739.25;;;5.68;79.95
34979;BME280;21185;50.978;13.720;2024-03-25T00:58:55;96736.84;;;5.66;79.94
34979;BME280;21185;50.978;13.720;2024-03-25T01:03:59;96738.63;;;5.66;80.34
34979;BME280;21185;50.978;13.720;2024-03-25T01:08:59;96741.69;;;5.61;80.28
34979;BME280;21185;50.978;13.720;2024-03-25T01:14:01;96740.91;;;5.61;80.20
34979;BME280;21185;50.978;13.720;2024-03-25T01:19:02;96754.41;;;5.63;80.34
34979;BME280;21185;50.978;13.720;2024-03-25T01:24:04;96752.81;;;5.62;80.67
34979;BME280;21185;50.978;13.720;2024-03-25T01:29:05;96765.84;;;5.60;80.95
34979;BME280;21185;50.978;13.720;2024-03-25T01:34:06;96780.00;;;5.56;81.11
34979;BME280;21185;50.978;13.720;2024-03-25T01:39:07;96783.88;;;5.52;81.01
34979;BME280;21185;50.978;13.720;2024-03-25T01:44:08;96789.34;;;5.49;81.04
34979;BME280;21185;50.978;13.720;2024-03-25T01:49:11;96783.94;;;5.36;80.58
34979;BME280;21185;50.978;13.720;2024-03-25T01:54:12;96789.09;;;5.28;80.68
34979;BME280;21185;50.978;13.720;2024-03-25T01:59:17;96798.28;;;5.22;80.54
34979;BME280;21185;50.978;13.720;2024-03-25T02:04:20;96800.56;;;5.17;80.46
34979;BME280;21185;50.978;13.720;2024-03-25T02:09:22;96805.56;;;5.10;80.53
34979;BME280;21185;50.978;13.720;2024-03-25T02:14:24;96800.09;;;5.13;80.60
34979;BME280;21185;50.978;13.720;2024-03-25T02:19:25;96808.13;;;5.18;80.62
34979;BME280;21185;50.978;13.720;2024-03-25T02:24:30;96813.72;;;5.22;80.93
34979;BME280;21185;50.978;13.720;2024-03-25T02:29:35;96811.78;;;5.24;81.29
34979;BME280;21185;50.978;13.720;2024-03-25T02:34:45;96819.97;;;5.28;81.33
34979;BME280;21185;50.978;13.720;2024-03-25T02:39:50;96817.56;;;5.26;81.59
34979;BME280;21185;50.978;13.720;2024-03-25T02:44:59;96819.97;;;5.28;82.25
34979;BME280;21185;50.978;13.720;2024-03-25T02:50:00;96820.59;;;5.30;82.07
34979;BME280;21185;50.978;13.720;2024-03-25T02:55:01;96816.09;;;5.32;82.63
34979;BME280;21185;50.978;13.720;2024-03-25T03:00:03;96833.13;;;5.33;82.83
34979;BME280;21185;50.978;13.720;2024-03-25T03:05:06;96835.69;;;5.33;83.28
34979;BME280;21185;50.978;13.720;2024-03-25T03:10:08;96843.09;;;5.36;83.49
34979;BME280;21185;50.978;13.720;2024-03-25T03:15:10;96846.31;;;5.38;83.56
34979;BME280;21185;50.978;13.720;2024-03-25T03:20:12;96851.44;;;5.38;83.53
34979;BME280;21185;50.978;13.720;2024-03-25T03:25:15;96865.91;;;5.39;83.58
34979;BME280;21185;50.978;13.720;2024-03-25T03:30:17;96873.78;;;5.37;83.64
34979;BME280;21185;50.978;13.720;2024-03-25T03:35:18;96875.56;;;5.37;83.64
34979;BME280;21185;50.978;13.720;2024-03-25T03:40:19;96878.13;;;5.37;83.69
34979;BME280;21185;50.978;13.720;2024-03-25T03:45:24;96884.09;;;5.37;83.70
34979;BME280;21185;50.978;13.720;2024-03-25T03:50:25;96887.63;;;5.36;83.50
34979;BME280;21185;50.978;13.720;2024-03-25T03:55:26;96901.63;;;5.34;83.54
34979;BME280;21185;50.978;13.720;2024-03-25T04:00:35;96895.81;;;5.32;83.93
34979;BME280;21185;50.978;13.720;2024-03-25T04:05:36;96902.91;;;5.30;83.95
34979;BME280;21185;50.978;13.720;2024-03-25T04:10:38;96901.28;;;5.29;83.94
34979;BME280;21185;50.978;13.720;2024-03-25T04:15:41;96911.59;;;5.29;83.77
34979;BME280;21185;50.978;13.720;2024-03-25T04:20:42;96912.88;;;5.33;83.69
34979;BME280;21185;50.978;13.720;2024-03-25T04:25:44;96921.88;;;5.37;83.46
34979;BME280;21185;50.978;13.720;2024-03-25T04:36:17;96940.03;;;5.35;83.17
34979;BME280;21185;50.978;13.720;2024-03-25T04:41:19;96953.69;;;5.36;82.61
34979;BME280;21185;50.978;13.720;2024-03-25T04:46:26;96955.47;;;5.35;82.68
34979;BME280;21185;50.978;13.720;2024-03-25T04:51:27;96967.84;;;5.32;82.75
34979;BME280;21185;50.978;13.720;2024-03-25T04:56:29;96969.44;;;5.33;82.84
34979;BME280;21185;50.978;13.720;2024-03-25T05:01:32;96986.81;;;5.31;82.34
34979;BME280;21185;50.978;13.720;2024-03-25T05:06:39;96988.56;;;5.30;82.58
34979;BME280;21185;50.978;13.720;2024-03-25T05:11:40;96987.28;;;5.34;82.50
34979;BME280;21185;50.978;13.720;2024-03-25T05:16:45;96999.34;;;5.34;82.32
34979;BME280;21185;50.978;13.720;2024-03-25T05:21:47;96994.38;;;5.32;82.20
34979;BME280;21185;50.978;13.720;2024-03-25T05:26:48;97003.53;;;5.35;82.47
34979;BME280;21185;50.978;13.720;2024-03-25T05:32:00;97018.97;;;5.35;82.31
34979;BME280;21185;50.978;13.720;2024-03-25T05:37:02;97023.16;;;5.36;82.63
34979;BME280;21185;50.978;13.720;2024-03-25T05:42:04;97027.47;;;5.35;82.56
34979;BME280;21185;50.978;13.720;2024-03-25T05:47:12;97042.13;;;5.35;82.92
34979;BME280;21185;50.978;13.720;2024-03-25T05:52:18;97034.56;;;5.33;82.89
34979;BME280;21185;50.978;13.720;2024-03-25T05:57:20;97041.47;;;5.25;82.33
34979;BME280;21185;50.978;13.720;2024-03-25T06:02:21;97052.72;;;5.15;82.33
34979;BME280;21185;50.978;13.720;2024-03-25T06:07:23;97059.16;;;5.11;82.32
34979;BME280;21185;50.978;13.720;2024-03-25T06:12:25;97058.66;;;5.08;82.76
34979;BME280;21185;50.978;13.720;2024-03-25T06:17:26;97053.84;;;5.13;83.55
34979;BME280;21185;50.978;13.720;2024-03-25T06:22:27;97058.16;;;5.20;83.72
34979;BME280;21185;50.978;13.720;2024-03-25T06:27:29;97073.28;;;5.24;83.70
34979;BME280;21185;50.978;13.720;2024-03-25T06:32:32;97074.72;;;5.26;83.60
34979;BME280;21185;50.978;13.720;2024-03-25T06:37:52;97083.75;;;5.30;83.72
34979;BME280;21185;50.978;13.720;2024-03-25T06:42:54;97082.78;;;5.39;83.49
34979;BME280;21185;50.978;13.720;2024-03-25T06:47:56;97087.47;;;5.44;83.26
34979;BME280;21185;50.978;13.720;2024-03-25T06:52:59;97093.41;;;5.44;83.09
34979;BME280;21185;50.978;13.720;2024-03-25T06:58:01;97103.88;;;5.51;82.85
34979;BME280;21185;50.978;13.720;2024-03-25T07:03:02;97109.03;;;5.59;82.69
34979;BME280;21185;50.978;13.720;2024-03-25T07:08:04;97116.75;;;5.67;82.63
34979;BME280;21185;50.978;13.720;2024-03-25T07:13:06;97118.38;;;5.68;82.21
34979;BME280;21185;50.978;13.720;2024-03-25T07:18:07;97132.38;;;5.74;82.21
34979;BME280;21185;50.978;13.720;2024-03-25T07:23:11;97137.53;;;5.82;82.62
34979;BME280;21185;50.978;13.720;2024-03-25T07:28:12;97148.97;;;5.88;81.94
34979;BME280;21185;50.978;13.720;2024-03-25T07:33:13;97156.22;;;5.92;81.42
34979;BME280;21185;50.978;13.720;2024-03-25T07:38:15;97140.63;;;5.94;80.63
34979;BME280;21185;50.978;13.720;2024-03-25T07:43:16;97166.69;;;5.99;80.95
34979;BME280;21185;50.978;13.720;2024-03-25T07:48:18;97165.25;;;6.04;80.65
34979;BME280;21185;50.978;13.720;2024-03-25T07:53:20;97165.09;;;6.14;80.65
34979;BME280;21185;50.978;13.720;2024-03-25T07:58:21;97168.78;;;6.28;79.88
34979;BME280;21185;50.978;13.720;2024-03-25T08:03:23;97183.44;;;6.35;79.65
34979;BME280;21185;50.978;13.720;2024-03-25T08:08:26;97191.31;;;6.34;78.94
34979;BME280;21185;50.978;13.720;2024-03-25T08:13:27;97203.88;;;6.29;78.34
34979;BME280;21185;50.978;13.720;2024-03-25T08:18:28;97202.75;;;6.23;77.83
34979;BME280;21185;50.978;13.720;2024-03-25T08:23:30;97209.19;;;6.19;77.71
34979;BME280;21185;50.978;13.720;2024-03-25T08:28:31;97210.16;;;6.18;77.51
34979;BME280;21185;50.978;13.720;2024-03-25T08:33:32;97216.59;;;6.14;77.41
34979;BME280;21185;50.978;13.720;2024-03-25T08:38:34;97220.16;;;6.13;77.04
34979;BME280;21185;50.978;13.720;2024-03-25T08:43:35;97227.88;;;6.21;77.39
34979;BME280;21185;50.978;13.720;2024-03-25T08:48:37;97218.22;;;6.31;77.14
34979;BME280;21185;50.978;13.720;2024-03-25T08:53:38;97224.34;;;6.38;77.34
34979;BME280;21185;50.978;13.720;2024-03-25T08:58:39;97231.91;;;6.48;77.05
34979;BME280;21185;50.978;13.720;2024-03-25T09:03:40;97231.75;;;6.58;76.59
34979;BME280;21185;50.978;13.720;2024-03-25T09:08:42;97237.53;;;6.68;76.30
34979;BME280;21185;50.978;13.720;2024-03-25T09:14:01;97233.63;;;6.88;76.46
34979;BME280;21185;50.978;13.720;2024-03-25T09:19:05;97246.50;;;6.96;75.51
34979;BME280;21185;50.978;13.720;2024-03-25T09:24:06;97246.66;;;7.03;75.27
34979;BME280;21185;50.978;13.720;2024-03-25T09:29:08;97262.00;;;6.96;73.86
34979;BME280;21185;50.978;13.720;2024-03-25T09:34:09;97263.44;;;6.99;73.72
34979;BME280;21185;50.978;13.720;2024-03-25T09:39:10;97275.53;;;6.98;73.52
34979;BME280;21185;50.978;13.720;2024-03-25T09:44:12;97278.09;;;7.06;73.74
34979;BME280;21185;50.978;13.720;2024-03-25T09:49:14;97280.97;;;7.11;73.42
34979;BME280;21185;50.978;13.720;2024-03-25T09:54:17;97284.53;;;7.10;72.93
34979;BME280;21185;50.978;13.720;2024-03-25T09:59:19;97293.72;;;7.05;72.62
34979;BME280;21185;50.978;13.720;2024-03-25T10:04:21;97301.00;;;7.01;72.87
34979;BME280;21185;50.978;13.720;2024-03-25T10:09:22;97315.50;;;6.94;72.44
34979;BME280;21185;50.978;13.720;2024-03-25T10:14:24;97304.88;;;6.89;72.29
34979;BME280;21185;50.978;13.720;2024-03-25T10:19:26;97315.00;;;6.99;72.28
34979;BME280;21185;50.978;13.720;2024-03-25T10:24:39;97303.88;;;7.14;72.24
34979;BME280;21185;50.978;13.720;2024-03-25T10:29:41;97304.50;;;7.17;71.81
34979;BME280;21185;50.978;13.720;2024-03-25T10:34:43;97307.09;;;7.17;71.02
34979;BME280;21185;50.978;13.720;2024-03-25T10:39:50;97305.47;;;7.15;69.96
34979;BME280;21185;50.978;13.720;2024-03-25T10:44:55;97301.59;;;7.20;69.34
34979;BME280;21185;50.978;13.720;2024-03-25T10:49:58;97297.53;;;7.33;69.65
34979;BME280;21185;50.978;13.720;2024-03-25T10:55:00;97290.88;;;7.47;69.13
34979;BME280;21185;50.978;13.720;2024-03-25T11:00:02;97296.63;;;7.65;69.24
34979;BME280;21185;50.978;13.720;2024-03-25T11:05:04;97291.75;;;7.78;68.60
34979;BME280;21185;50.978;13.720;2024-03-25T11:10:08;97298.19;;;7.83;68.01
34979;BME280;21185;50.978;13.720;2024-03-25T11:15:10;97301.25;;;7.78;66.99
34979;BME280;21185;50.978;13.720;2024-03-25T11:20:15;97302.06;;;7.78;67.02
34979;BME280;21185;50.978;13.720;2024-03-25T11:25:21;97305.44;;;7.79;67.06
34979;BME280;21185;50.978;13.720;2024-03-25T11:30:22;97296.72;;;7.80;66.98
34979;BME280;21185;50.978;13.720;2024-03-25T11:35:27;97296.91;;;7.78;66.97
34979;BME280;21185;50.978;13.720;2024-03-25T11:40:29;97293.19;;;7.81;66.85
34979;BME280;21185;50.978;13.720;2024-03-25T11:45:31;97296.19;;;7.93;66.80
34979;BME280;21185;50.978;13.720;2024-03-25T11:50:34;97293.09;;;7.97;65.75
34979;BME280;21185;50.978;13.720;2024-03-25T11:55:36;97297.28;;;7.98;64.74
34979;BME280;21185;50.978;13.720;2024-03-25T12:00:44;97295.03;;;7.95;64.50
34979;BME280;21185;50.978;13.720;2024-03-25T12:05:46;97296.53;;;7.90;64.67
34979;BME280;21185;50.978;13.720;2024-03-25T12:10:47;97296.56;;;7.82;64.65
34979;BME280;21185;50.978;13.720;2024-03-25T12:16:07;97304.00;;;7.76;65.35
34979;BME280;21185;50.978;13.720;2024-03-25T12:21:11;97313.03;;;7.80;65.98
34979;BME280;21185;50.978;13.720;2024-03-25T12:26:12;97319.16;;;7.79;65.85
34979;BME280;21185;50.978;13.720;2024-03-25T12:31:14;97304.81;;;7.77;66.14
34979;BME280;21185;50.978;13.720;2024-03-25T12:36:17;97321.13;;;7.77;66.05
34979;BME280;21185;50.978;13.720;2024-03-25T12:41:22;97326.00;;;7.64;66.62
34979;BME280;21185;50.978;13.720;2024-03-25T12:46:23;97318.63;;;7.53;67.62
34979;BME280;21185;50.978;13.720;2024-03-25T12:51:26;97315.72;;;7.48;67.62
34979;BME280;21185;50.978;13.720;2024-03-25T12:56:27;97324.59;;;7.54;67.91
34979;BME280;21185;50.978;13.720;2024-03-25T13:01:28;97331.84;;;7.58;68.08
34979;BME280;21185;50.978;13.720;2024-03-25T13:06:29;97324.72;;;7.60;68.24
34979;BME280;21185;50.978;13.720;2024-03-25T13:11:30;97325.00;;;7.73;68.56
34979;BME280;21185;50.978;13.720;2024-03-25T13:16:33;97316.22;;;7.91;68.69
34979;BME280;21185;50.978;13.720;2024-03-25T13:21:34;97325.19;;;8.03;68.71
34979;BME280;21185;50.978;13.720;2024-03-25T13:26:35;97325.53;;;8.00;68.02
34979;BME280;21185;50.978;13.720;2024-03-25T13:31:36;97324.94;;;7.90;66.93
34979;BME280;21185;50.978;13.720;2024-03-25T13:36:37;97322.66;;;7.95;67.05
34979;BME280;21185;50.978;13.720;2024-03-25T13:41:39;97320.66;;;8.05;66.39
34979;BME280;21185;50.978;13.720;2024-03-25T13:46:40;97321.78;;;8.10;65.58
34979;BME280;21185;50.978;13.720;2024-03-25T13:51:41;97325.78;;;8.13;65.28
34979;BME280;21185;50.978;13.720;2024-03-25T13:56:42;97324.34;;;8.10;65.13
34979;BME280;21185;50.978;13.720;2024-03-25T14:01:46;97315.81;;;8.10;65.28
34979;BME280;21185;50.978;13.720;2024-03-25T14:06:47;97312.41;;;8.09;65.67
34979;BME280;21185;50.978;13.720;2024-03-25T14:11:50;97298.69;;;8.09;65.28
34979;BME280;21185;50.978;13.720;2024-03-25T14:16:51;97303.00;;;8.17;65.34
34979;BME280;21185;50.978;13.720;2024-03-25T14:21:53;97296.63;;;8.27;65.00
34979;BME280;21185;50.978;13.720;2024-03-25T14:26:54;97292.38;;;8.42;65.12
34979;BME280;21185;50.978;13.720;2024-03-25T14:31:56;97283.34;;;8.61;65.19
34979;BME280;21185;50.978;13.720;2024-03-25T14:36:58;97281.53;;;8.85;65.09
34979;BME280;21185;50.978;13.720;2024-03-25T14:42:02;97279.25;;;9.04;65.09
34979;BME280;21185;50.978;13.720;2024-03-25T14:47:04;97273.28;;;9.04;63.95
34979;BME280;21185;50.978;13.720;2024-03-25T14:52:06;97274.06;;;9.04;63.92
34979;BME280;21185;50.978;13.720;2024-03-25T14:57:08;97265.34;;;9.05;63.49
34979;BME280;21185;50.978;13.720;2024-03-25T15:02:09;97255.44;;;9.09;63.22
34979;BME280;21185;50.978;13.720;2024-03-25T15:07:14;97261.84;;;9.13;62.91
34979;BME280;21185;50.978;13.720;2024-03-25T15:12:15;97257.75;;;9.04;61.71
34979;BME280;21185;50.978;13.720;2024-03-25T15:23:52;97260.50;;;9.02;61.77
34979;BME280;21185;50.978;13.720;2024-03-25T15:28:53;97268.81;;;8.98;61.96
34979;BME280;21185;50.978;13.720;2024-03-25T15:33:54;97264.97;;;8.94;62.07
34979;BME280;21185;50.978;13.720;2024-03-25T15:38:57;97264.50;;;8.90;61.63
34979;BME280;21185;50.978;13.720;2024-03-25T15:43:59;97261.28;;;8.88;61.66
34979;BME280;21185;50.978;13.720;2024-03-25T15:49:00;97258.88;;;8.87;61.67
34979;BME280;21185;50.978;13.720;2024-03-25T15:54:01;97261.28;;;8.88;62.04
34979;BME280;21185;50.978;13.720;2024-03-25T15:59:03;97245.78;;;8.88;62.23
34979;BME280;21185;50.978;13.720;2024-03-25T16:04:04;97249.25;;;8.95;62.48
34979;BME280;21185;50.978;13.720;2024-03-25T16:09:05;97243.72;;;8.98;62.61
34979;BME280;21185;50.978;13.720;2024-03-25T16:14:07;97231.41;;;9.00;62.77
34979;BME280;21185;50.978;13.720;2024-03-25T16:19:11;97235.69;;;8.93;62.79
34979;BME280;21185;50.978;13.720;2024-03-25T16:24:14;97236.41;;;8.87;63.13
34979;BME280;21185;50.978;13.720;2024-03-25T16:29:16;97232.28;;;8.78;62.89
34979;BME280;21185;50.978;13.720;2024-03-25T16:34:17;97233.00;;;8.72;62.94
34979;BME280;21185;50.978;13.720;2024-03-25T16:39:18;97235.66;;;8.64;63.10
34979;BME280;21185;50.978;13.720;2024-03-25T16:44:19;97229.75;;;8.55;63.34
34979;BME280;21185;50.978;13.720;2024-03-25T16:49:20;97228.19;;;8.46;63.54
34979;BME280;21185;50.978;13.720;2024-03-25T16:54:22;97227.47;;;8.37;63.63
34979;BME280;21185;50.978;13.720;2024-03-25T16:59:24;97232.84;;;8.28;64.00
34979;BME280;21185;50.978;13.720;2024-03-25T17:04:25;97237.78;;;8.15;63.92
34979;BME280;21185;50.978;13.720;2024-03-25T17:09:26;97239.13;;;8.02;64.35
34979;BME280;21185;50.978;13.720;2024-03-25T17:14:27;97235.97;;;7.92;64.42
34979;BME280;21185;50.978;13.720;2024-03-25T17:19:29;97232.16;;;7.80;64.73
34979;BME280;21185;50.978;13.720;2024-03-25T17:24:30;97236.91;;;7.68;65.02
34979;BME280;21185;50.978;13.720;2024-03-25T17:29:32;97234.72;;;7.57;65.07
34979;BME280;21185;50.978;13.720;2024-03-25T17:34:33;97247.00;;;7.47;65.22
34979;BME280;21185;50.978;13.720;2024-03-25T17:39:34;97243.00;;;7.36;65.58
34979;BME280;21185;50.978;13.720;2024-03-25T17:44:36;97245.00;;;7.26;65.66
34979;BME280;21185;50.978;13.720;2024-03-25T17:49:39;97247.75;;;7.17;65.65
34979;BME280;21185;50.978;13.720;2024-03-25T17:54:40;97244.56;;;7.06;65.76
34979;BME280;21185;50.978;13.720;2024-03-25T17:59:42;97256.03;;;6.96;66.00
34979;BME280;21185;50.978;13.720;2024-03-25T18:04:44;97261.19;;;6.88;65.99
34979;BME280;21185;50.978;13.720;2024-03-25T18:09:46;97264.59;;;6.80;65.99
34979;BME280;21185;50.978;13.720;2024-03-25T18:14:47;97254.94;;;6.74;66.11
34979;BME280;21185;50.978;13.720;2024-03-25T18:19:48;97255.75;;;6.66;66.20
34979;BME280;21185;50.978;13.720;2024-03-25T18:24:50;97257.03;;;6.62;66.55
34979;BME280;21185;50.978;13.720;2024-03-25T18:29:51;97264.44;;;6.57;66.27
34979;BME280;21185;50.978;13.720;2024-03-25T18:34:53;97265.88;;;6.52;66.42
34979;BME280;21185;50.978;13.720;2024-03-25T18:39:54;97260.41;;;6.46;66.70
34979;BME280;21185;50.978;13.720;2024-03-25T18:44:56;97265.41;;;6.40;66.68
34979;BME280;21185;50.978;13.720;2024-03-25T18:49:57;97259.13;;;6.34;66.53
34979;BME280;21185;50.978;13.720;2024-03-25T18:54:58;97251.88;;;6.30;66.79
34979;BME280;21185;50.978;13.720;2024-03-25T19:00:00;97256.53;;;6.26;66.71
34979;BME280;21185;50.978;13.720;2024-03-25T19:05:01;97265.72;;;6.21;66.81
34979;BME280;21185;50.978;13.720;2024-03-25T19:10:03;97258.47;;;6.16;66.80
34979;BME280;21185;50.978;13.720;2024-03-25T19:15:05;97264.09;;;6.11;66.92
34979;BME280;21185;50.978;13.720;2024-03-25T19:20:07;97268.09;;;6.06;66.96
34979;BME280;21185;50.978;13.720;2024-03-25T19:25:09;97265.19;;;6.01;67.05
34979;BME280;21185;50.978;13.720;2024-03-25T19:30:11;97248.44;;;5.97;67.17
34979;BME280;21185;50.978;13.720;2024-03-25T19:35:13;97250.53;;;5.93;67.09
34979;BME280;21185;50.978;13.720;2024-03-25T19:40:14;97246.78;;;5.88;67.06
34979;BME280;21185;50.978;13.720;2024-03-25T19:45:16;97242.75;;;5.85;67.15
34979;BME280;21185;50.978;13.720;2024-03-25T19:50:20;97239.03;;;5.79;67.04
34979;BME280;21185;50.978;13.720;2024-03-25T19:55:22;97234.22;;;5.76;67.28
34979;BME280;21185;50.978;13.720;2024-03-25T20:00:23;97233.72;;;5.73;67.36
34979;BME280;21185;50.978;13.720;2024-03-25T20:05:24;97227.44;;;5.67;67.00
34979;BME280;21185;50.978;13.720;2024-03-25T20:10:25;97228.72;;;5.63;67.36
34979;BME280;21185;50.978;13.720;2024-03-25T20:15:26;97241.22;;;5.58;67.27
34979;BME280;21185;50.978;13.720;2024-03-25T20:20:27;97225.31;;;5.54;67.25
34979;BME280;21185;50.978;13.720;2024-03-25T20:25:29;97230.59;;;5.53;67.30
34979;BME280;21185;50.978;13.720;2024-03-25T20:30:30;97231.72;;;5.50;67.27
34979;BME280;21185;50.978;13.720;2024-03-25T20:35:31;97247.63;;;5.46;67.72
34979;BME280;21185;50.978;13.720;2024-03-25T20:40:33;97232.66;;;5.41;67.21
34979;BME280;21185;50.978;13.720;2024-03-25T20:45:34;97248.56;;;5.37;67.33
34979;BME280;21185;50.978;13.720;2024-03-25T20:50:35;97244.53;;;5.34;67.17
34979;BME280;21185;50.978;13.720;2024-03-25T20:55:38;97243.06;;;5.32;67.33
34979;BME280;21185;50.978;13.720;2024-03-25T21:00:39;97240.78;;;5.29;67.43
34979;BME280;21185;50.978;13.720;2024-03-25T21:05:40;97231.78;;;5.25;67.33
34979;BME280;21185;50.978;13.720;2024-03-25T21:10:42;97225.50;;;5.19;67.28
34979;BME280;21185;50.978;13.720;2024-03-25T21:15:43;97234.50;;;5.15;67.29
34979;BME280;21185;50.978;13.720;2024-03-25T21:20:44;97230.47;;;5.12;67.25
34979;BME280;21185;50.978;13.720;2024-03-25T21:25:45;97223.22;;;5.08;67.06
34979;BME280;21185;50.978;13.720;2024-03-25T21:30:47;97224.47;;;5.04;67.15
34979;BME280;21185;50.978;13.720;2024-03-25T21:35:48;97219.78;;;4.99;67.21
34979;BME280;21185;50.978;13.720;2024-03-25T21:40:49;97220.09;;;4.96;67.31
34979;BME280;21185;50.978;13.720;2024-03-25T21:45:50;97217.97;;;4.92;67.07
34979;BME280;21185;50.978;13.720;2024-03-25T21:50:58;97222.63;;;4.88;67.15
34979;BME280;21185;50.978;13.720;2024-03-25T21:56:00;97226.44;;;4.84;67.21
34979;BME280;21185;50.978;13.720;2024-03-25T22:01:02;97229.31;;;4.81;67.21
34979;BME280;21185;50.978;13.720;2024-03-25T22:06:03;97233.31;;;4.75;67.13
34979;BME280;21185;50.978;13.720;2024-03-25T22:11:04;97227.66;;;4.72;66.96
34979;BME280;21185;50.978;13.720;2024-03-25T22:16:05;97217.69;;;4.69;67.22
34979;BME280;21185;50.978;13.720;2024-03-25T22:21:06;97222.31;;;4.65;66.92
34979;BME280;21185;50.978;13.720;2024-03-25T22:26:08;97215.72;;;4.63;67.17
34979;BME280;21185;50.978;13.720;2024-03-25T22:31:09;97203.03;;;4.61;66.98
34979;BME280;21185;50.978;13.720;2024-03-25T22:36:11;97202.38;;;4.59;67.61
34979;BME280;21185;50.978;13.720;2024-03-25T22:41:12;97201.72;;;4.57;67.22
34979;BME280;21185;50.978;13.720;2024-03-25T22:46:13;97198.34;;;4.57;67.35
34979;BME280;21185;50.978;13.720;2024-03-25T22:51:15;97178.09;;;4.53;66.99
34979;BME280;21185;50.978;13.720;2024-03-25T22:56:16;97179.66;;;4.46;67.21
34979;BME280;21185;50.978;13.720;2024-03-25T23:01:17;97177.38;;;4.43;67.16
34979;BME280;21185;50.978;13.720;2024-03-25T23:06:18;97177.69;;;4.40;67.14
34979;BME280;21185;50.978;13.720;2024-03-25T23:11:19;97170.41;;;4.36;67.21
34979;BME280;21185;50.978;13.720;2024-03-25T23:16:20;97158.84;;;4.32;67.20
34979;BME280;21185;50.978;13.720;2024-03-25T23:21:21;97166.69;;;4.30;67.05
34979;BME280;21185;50.978;13.720;2024-03-25T23:26:23;97168.59;;;4.28;66.87
34979;BME280;21185;50.978;13.720;2024-03-25T23:31:24;97173.88;;;4.27;67.05
34979;BME280;21185;50.978;13.720;2024-03-25T23:36:25;97173.22;;;4.25;66.89
34979;BME280;21185;50.978;13.720;2024-03-25T23:41:26;97176.09;;;4.21;67.17
34979;BME280;21185;50.978;13.720;2024-03-25T23:46:27;97162.75;;;4.18;67.22
34979;BME280;21185;50.978;13.720;2024-03-25T23:51:28;97161.44;;;4.14;67.08
34979;BME280;21185;50.978;13.720;2024-03-25T23:56:29;97147.28;;;4.10;67.17
